This is the latest recevied weather packets stored in our database for station/object DG8SBT-10. If no packets are shown the sender has not sent any weather packets the latest 10 day(s).
| Time | Temp. | Humidity | Pressure | Rain* | Wind** | Luminosity | Snow |
|---|---|---|---|---|---|---|---|
| 1788429860 | 26.67° C | 38% | 1024.1 hPa | - | - | - | - |
| 1788428960 | 26.11° C | 38% | 1024.3 hPa | - | - | - | - |
| 1788428060 | 25.56° C | 40% | 1024.2 hPa | - | - | - | - |
| 1788427160 | 25.56° C | 39% | 1024.3 hPa | - | - | - | - |
| 1788426260 | 25.56° C | 41% | 1024.5 hPa | - | - | - | - |
| 1788425360 | 24.44° C | 41% | 1024.4 hPa | - | - | - | - |
| 1788424460 | 23.89° C | 42% | 1024.1 hPa | - | - | - | - |
| 1788423560 | 23.89° C | 44% | 1024.4 hPa | - | - | - | - |
| 1788422660 | 23.89° C | 45% | 1024.4 hPa | - | - | - | - |
| 1788421760 | 22.78° C | 46% | 1024.4 hPa | - | - | - | - |
| 1788420859 | 23.89° C | 45% | 1024.5 hPa | - | - | - | - |
| 1788419959 | 23.33° C | 45% | 1024.7 hPa | - | - | - | - |
| 1788419059 | 22.78° C | 47% | 1024.6 hPa | - | - | - | - |
| 1788418159 | 22.22° C | 49% | 1024.5 hPa | - | - | - | - |
| 1788417259 | 21.67° C | 49% | 1024.6 hPa | - | - | - | - |
| 1788416359 | 20.56° C | 51% | 1024.6 hPa | - | - | - | - |
| 1788415459 | 22.22° C | 47% | 1024.5 hPa | - | - | - | - |
| 1788414559 | 21.67° C | 49% | 1024.9 hPa | - | - | - | - |
| 1788413659 | 21.67° C | 48% | 1024.8 hPa | - | - | - | - |
| 1788412759 | 20° C | 53% | 1024.4 hPa | - | - | - | - |
| 1788411858 | 20° C | 54% | 1024.3 hPa | - | - | - | - |
| 1788410958 | 20° C | 52% | 1024.3 hPa | - | - | - | - |
| 1788410058 | 20° C | 52% | 1024 hPa | - | - | - | - |
| 1788409158 | 19.44° C | 52% | 1024 hPa | - | - | - | - |
| 1788408258 | 20° C | 53% | 1024.2 hPa | - | - | - | - |
* Rain since midnight (hover to see other rain measurements)
** Current wind speed in m/s (hover to see current wind gust speed)